Time;durP1;ratioP1;P1;durP2;ratioP2;P2;SDS_P1;SDS_P2;PMS_P1;PMS_P2;Temp;Humidity;BMP_temperature;BMP_pressure;BME280_temperature;BME280_humidity;BME280_pressure;Samples;Min_cycle;Max_cycle;Signal;HPM_P1;HPM_P2
2022/03/30 00:01:30;;;;;;;1.48;1.38;;;16.90;49.50;;;;;;5123393;28;20077;-67
2022/03/30 00:03:55;;;;;;;1.77;1.48;;;16.90;49.60;;;;;;5123472;28;20030;-66
2022/03/30 00:06:21;;;;;;;1.35;1.25;;;16.90;49.60;;;;;;5123380;28;20035;-66
2022/03/30 00:08:47;;;;;;;1.58;1.30;;;16.90;49.50;;;;;;5123364;28;20235;-66
2022/03/30 00:11:12;;;;;;;1.65;1.20;;;16.80;49.50;;;;;;5123273;28;20037;-67
2022/03/30 00:13:39;;;;;;;1.40;1.30;;;16.90;49.50;;;;;;5123301;28;20031;-66
2022/03/30 00:16:06;;;;;;;1.00;1.00;;;16.80;49.50;;;;;;5123093;28;20088;-66
2022/03/30 00:18:33;;;;;;;1.20;1.08;;;16.90;49.50;;;;;;5123118;27;20340;-67
2022/03/30 00:20:59;;;;;;;2.47;1.60;;;16.90;49.60;;;;;;5123034;28;20036;-66
2022/03/30 00:23:25;;;;;;;2.10;1.52;;;16.90;49.50;;;;;;5123128;28;20027;-67
2022/03/30 00:25:51;;;;;;;1.60;1.30;;;16.90;49.50;;;;;;5122993;28;20216;-67
2022/03/30 00:28:16;;;;;;;2.03;1.38;;;16.80;49.50;;;;;;5122970;28;20055;-68
2022/03/30 00:30:42;;;;;;;1.60;1.42;;;16.90;49.60;;;;;;5122936;27;20062;-67
2022/03/30 00:33:08;;;;;;;1.85;1.30;;;16.90;49.50;;;;;;5122836;28;20347;-66
2022/03/30 00:35:34;;;;;;;1.75;1.45;;;16.80;49.40;;;;;;5122700;28;20043;-66
2022/03/30 00:38:00;;;;;;;1.55;1.27;;;16.80;49.50;;;;;;5122761;28;20031;-67
2022/03/30 00:40:27;;;;;;;1.20;1.08;;;16.80;49.50;;;;;;5122671;28;20228;-67
2022/03/30 00:42:52;;;;;;;2.05;1.30;;;16.80;49.50;;;;;;5122697;28;20027;-66
2022/03/30 00:45:22;;;;;;;1.23;1.13;;;16.80;49.50;;;;;;5122645;28;20028;-67
2022/03/30 00:47:48;;;;;;;1.58;1.23;;;16.80;49.50;;;;;;5122566;28;20020;-67
2022/03/30 00:50:16;;;;;;;1.90;1.40;;;16.80;49.50;;;;;;5122240;28;20056;-66
2022/03/30 00:52:43;;;;;;;1.67;1.58;;;16.80;49.50;;;;;;5122211;28;20051;-66
2022/03/30 00:55:09;;;;;;;1.98;1.67;;;16.80;49.50;;;;;;5121086;28;20035;-67
2022/03/30 00:57:37;;;;;;;1.55;1.10;;;16.80;49.40;;;;;;5121165;28;20024;-67
2022/03/30 01:00:09;;;;;;;1.83;1.67;;;16.80;49.40;;;;;;5122369;28;20027;-68
2022/03/30 01:02:39;;;;;;;2.00;1.35;;;16.80;49.40;;;;;;5122353;28;20307;-67
2022/03/30 01:05:06;;;;;;;1.40;1.30;;;16.80;49.40;;;;;;5122337;28;20031;-67
2022/03/30 01:07:32;;;;;;;1.67;1.20;;;16.80;49.40;;;;;;5122186;28;20496;-67
2022/03/30 01:09:58;;;;;;;2.00;1.33;;;16.80;49.50;;;;;;5122151;28;20027;-66
2022/03/30 01:12:25;;;;;;;1.48;1.27;;;16.80;49.50;;;;;;5122135;28;20312;-66
2022/03/30 01:14:52;;;;;;;2.13;1.60;;;16.80;49.40;;;;;;5121947;28;20094;-66
2022/03/30 01:17:18;;;;;;;1.98;1.20;;;16.80;49.40;;;;;;5121947;28;20020;-66
2022/03/30 01:19:44;;;;;;;3.00;1.48;;;16.80;49.40;;;;;;5122029;28;20012;-66
2022/03/30 01:22:10;;;;;;;1.40;1.08;;;16.80;49.40;;;;;;5121833;28;20030;-67
2022/03/30 01:24:37;;;;;;;1.42;1.33;;;16.80;49.40;;;;;;5121948;28;20254;-67
2022/03/30 01:27:03;;;;;;;1.73;1.27;;;16.80;49.40;;;;;;5121783;28;20064;-67
2022/03/30 01:32:29;;;;;;;1.98;1.50;;;16.80;49.50;;;;;;5097491;28;20049;-67
2022/03/30 01:34:59;;;;;;;1.25;1.13;;;16.80;49.40;;;;;;5121628;28;20193;-66
2022/03/30 01:37:28;;;;;;;1.35;1.25;;;16.80;49.40;;;;;;5121708;28;20119;-68
2022/03/30 01:39:58;;;;;;;1.20;1.10;;;16.80;49.40;;;;;;5121525;28;20323;-66
2022/03/30 01:42:25;;;;;;;1.50;1.30;;;16.80;49.40;;;;;;5121582;28;20027;-66
2022/03/30 01:44:51;;;;;;;1.58;1.38;;;16.70;49.40;;;;;;5121433;28;20379;-68
2022/03/30 01:47:17;;;;;;;1.58;1.40;;;16.80;49.40;;;;;;5121368;28;20027;-67
2022/03/30 01:49:43;;;;;;;1.92;1.65;;;16.80;49.40;;;;;;5121042;28;20371;-67
2022/03/30 01:52:09;;;;;;;1.92;1.27;;;16.70;49.40;;;;;;5121190;28;20023;-66
2022/03/30 01:54:37;;;;;;;1.65;1.27;;;16.70;49.30;;;;;;5119971;28;20035;-69
2022/03/30 01:57:03;;;;;;;2.50;1.42;;;16.70;49.40;;;;;;5121242;28;20023;-67
2022/03/30 01:59:30;;;;;;;1.83;1.27;;;16.70;49.40;;;;;;5121104;28;20024;-66
2022/03/30 02:01:55;;;;;;;2.08;1.48;;;16.70;49.40;;;;;;5121156;28;20019;-67
2022/03/30 02:04:22;;;;;;;2.13;1.48;;;16.70;49.40;;;;;;5120305;28;20019;-67
2022/03/30 02:06:48;;;;;;;1.70;1.60;;;16.70;49.40;;;;;;5121070;27;20351;-67
2022/03/30 02:09:14;;;;;;;1.60;1.45;;;16.70;49.40;;;;;;5120956;28;20084;-66
2022/03/30 02:11:40;;;;;;;2.15;1.25;;;16.70;49.40;;;;;;5120882;28;20077;-67
2022/03/30 02:14:07;;;;;;;2.05;1.40;;;16.70;49.30;;;;;;5120878;28;20219;-67
2022/03/30 02:16:32;;;;;;;1.60;1.30;;;16.70;49.30;;;;;;5119376;28;20099;-67
2022/03/30 02:18:58;;;;;;;1.52;1.30;;;16.70;49.30;;;;;;5119470;28;20035;-67
2022/03/30 02:21:24;;;;;;;1.50;1.40;;;16.70;49.30;;;;;;5120788;28;20022;-67
2022/03/30 02:23:51;;;;;;;2.15;1.40;;;16.70;49.30;;;;;;5120734;28;20023;-67
2022/03/30 02:26:17;;;;;;;2.13;1.70;;;16.70;49.30;;;;;;5120612;28;20023;-66
2022/03/30 02:28:45;;;;;;;1.50;1.40;;;16.70;49.30;;;;;;5120577;28;20031;-67
2022/03/30 02:31:11;;;;;;;1.95;1.85;;;16.70;49.30;;;;;;5120530;28;20054;-67
2022/03/30 02:33:37;;;;;;;1.58;1.27;;;16.80;49.40;;;;;;5120514;28;20434;-66
2022/03/30 02:36:04;;;;;;;1.45;1.33;;;16.70;49.20;;;;;;5120455;28;20031;-66
2022/03/30 02:38:30;;;;;;;1.75;1.30;;;16.70;49.30;;;;;;5120402;28;20070;-67
2022/03/30 02:40:55;;;;;;;1.27;1.17;;;16.70;49.30;;;;;;5120323;28;20065;-67
2022/03/30 02:43:21;;;;;;;1.60;1.50;;;16.70;49.30;;;;;;5120707;28;20011;-67
2022/03/30 02:45:47;;;;;;;1.52;1.20;;;16.70;49.30;;;;;;5120309;28;20255;-66
2022/03/30 02:48:19;;;;;;;1.65;1.50;;;16.70;49.30;;;;;;5120265;28;20038;-66
2022/03/30 02:50:47;;;;;;;1.38;1.20;;;16.70;49.30;;;;;;5120043;28;20248;-67
2022/03/30 02:53:14;;;;;;;1.48;1.27;;;16.70;49.30;;;;;;5120214;28;20055;-66
2022/03/30 02:55:40;;;;;;;1.23;1.13;;;16.70;49.30;;;;;;5120056;28;20027;-66
2022/03/30 02:58:06;;;;;;;1.73;1.58;;;16.70;49.30;;;;;;5120179;28;20331;-66
2022/03/30 03:00:32;;;;;;;1.88;1.70;;;16.70;49.30;;;;;;5120144;28;20464;-67
2022/03/30 03:03:00;;;;;;;1.67;1.48;;;16.70;49.30;;;;;;5120033;28;20376;-67
2022/03/30 03:05:31;;;;;;;1.70;1.45;;;16.70;49.30;;;;;;5119989;28;20027;-66
2022/03/30 03:07:58;;;;;;;2.03;1.60;;;16.70;49.30;;;;;;5120007;28;20042;-66
2022/03/30 03:10:24;;;;;;;2.03;1.70;;;16.70;49.30;;;;;;5120001;28;20024;-66
2022/03/30 03:12:49;;;;;;;1.38;1.27;;;16.70;49.30;;;;;;5119925;28;20026;-66
2022/03/30 03:15:15;;;;;;;1.73;1.40;;;16.70;49.30;;;;;;5119796;28;20049;-66
2022/03/30 03:17:41;;;;;;;1.35;1.25;;;16.70;49.30;;;;;;5119847;28;20092;-67
2022/03/30 03:20:07;;;;;;;2.03;1.40;;;16.70;49.30;;;;;;5119737;28;20243;-66
2022/03/30 03:22:32;;;;;;;2.17;1.40;;;16.70;49.30;;;;;;5119505;28;20027;-66
2022/03/30 03:24:58;;;;;;;2.00;1.38;;;16.70;49.30;;;;;;5119726;28;20027;-67
2022/03/30 03:27:24;;;;;;;1.30;1.20;;;16.60;49.20;;;;;;5119810;28;20019;-67
2022/03/30 03:29:50;;;;;;;2.63;1.65;;;16.70;49.30;;;;;;5119746;28;20583;-67
2022/03/30 03:32:15;;;;;;;1.67;1.27;;;16.70;49.30;;;;;;5119767;28;20058;-67
2022/03/30 03:34:41;;;;;;;2.35;1.38;;;16.70;49.30;;;;;;5119578;28;20038;-67
2022/03/30 03:37:07;;;;;;;1.33;1.23;;;16.70;49.30;;;;;;5119699;28;20026;-66
2022/03/30 03:39:32;;;;;;;1.67;1.55;;;16.70;49.30;;;;;;5119689;28;20086;-66
2022/03/30 03:41:58;;;;;;;2.00;1.23;;;16.60;49.30;;;;;;5119650;28;20568;-65
2022/03/30 03:44:24;;;;;;;1.90;1.20;;;16.60;49.30;;;;;;5119676;28;20204;-66
2022/03/30 03:46:49;;;;;;;1.80;1.70;;;16.60;49.20;;;;;;5119534;28;20031;-66
2022/03/30 03:49:15;;;;;;;2.53;1.63;;;16.60;49.20;;;;;;5119463;28;20016;-67
2022/03/30 03:51:41;;;;;;;1.73;1.40;;;16.60;49.20;;;;;;5118288;28;20376;-66
2022/03/30 03:54:06;;;;;;;1.38;1.25;;;16.60;49.20;;;;;;5119509;28;20020;-66
2022/03/30 03:56:32;;;;;;;1.60;1.33;;;16.60;49.30;;;;;;5119470;28;20024;-68
2022/03/30 03:58:58;;;;;;;1.45;1.33;;;16.60;49.30;;;;;;5119496;28;20031;-65
2022/03/30 04:01:23;;;;;;;2.60;1.83;;;16.60;49.20;;;;;;5119495;28;20023;-66
2022/03/30 04:03:49;;;;;;;1.95;1.50;;;16.60;49.20;;;;;;5119336;28;20007;-66
2022/03/30 04:06:15;;;;;;;1.52;1.33;;;16.60;49.20;;;;;;5119472;28;20031;-66
2022/03/30 04:08:41;;;;;;;1.80;1.63;;;16.60;49.30;;;;;;5119382;28;20031;-67
2022/03/30 04:11:06;;;;;;;1.85;1.55;;;16.60;49.20;;;;;;5119397;28;20215;-66
2022/03/30 04:13:32;;;;;;;1.38;1.27;;;16.60;49.30;;;;;;5119354;28;20026;-67
2022/03/30 04:15:58;;;;;;;2.40;1.38;;;16.60;49.10;;;;;;5119322;28;20035;-66
2022/03/30 04:18:23;;;;;;;2.10;1.40;;;16.60;49.20;;;;;;5119394;28;20060;-66
2022/03/30 04:20:49;;;;;;;1.48;1.38;;;16.60;49.20;;;;;;5119235;28;20050;-66
2022/03/30 04:23:15;;;;;;;2.00;1.48;;;16.60;49.20;;;;;;5119283;28;20027;-66
2022/03/30 04:25:40;;;;;;;1.75;1.27;;;16.60;49.20;;;;;;5119286;28;20102;-67
2022/03/30 04:28:06;;;;;;;2.38;1.60;;;16.60;49.20;;;;;;5122048;28;20088;-66
2022/03/30 04:30:32;;;;;;;2.28;1.70;;;16.60;49.10;;;;;;5123001;28;20405;-67
2022/03/30 04:32:58;;;;;;;1.40;1.30;;;16.60;49.20;;;;;;5121714;28;20032;-67
2022/03/30 04:35:26;;;;;;;1.35;1.25;;;16.60;49.20;;;;;;5122898;28;20343;-66
2022/03/30 04:37:54;;;;;;;1.95;1.60;;;16.60;49.20;;;;;;5122909;28;20102;-68
2022/03/30 04:40:21;;;;;;;1.60;1.33;;;16.60;49.20;;;;;;5122832;28;20092;-67
2022/03/30 04:42:48;;;;;;;2.35;1.63;;;16.60;49.20;;;;;;5122753;28;20023;-65
2022/03/30 04:45:14;;;;;;;1.38;1.27;;;16.60;49.10;;;;;;5122872;28;20027;-66
2022/03/30 04:47:39;;;;;;;1.98;1.05;;;16.60;49.10;;;;;;5122697;28;20242;-67
2022/03/30 04:50:05;;;;;;;1.40;1.17;;;16.60;49.20;;;;;;5122614;28;20074;-67
2022/03/30 04:52:32;;;;;;;1.65;1.45;;;16.60;49.20;;;;;;5122491;28;20050;-66
2022/03/30 04:54:58;;;;;;;1.33;1.23;;;16.60;49.10;;;;;;5122544;28;20031;-67
2022/03/30 04:57:24;;;;;;;1.45;1.35;;;16.60;49.20;;;;;;5122574;28;20080;-67
2022/03/30 04:59:50;;;;;;;1.98;1.35;;;16.60;49.10;;;;;;5122455;28;20023;-66
2022/03/30 05:02:16;;;;;;;3.88;1.63;;;16.60;49.20;;;;;;5122532;28;20050;-66
2022/03/30 05:04:42;;;;;;;2.00;1.60;;;16.60;49.30;;;;;;5122312;28;20039;-67
2022/03/30 05:07:07;;;;;;;1.40;1.20;;;16.60;49.20;;;;;;5122366;28;20085;-66
2022/03/30 05:09:33;;;;;;;1.70;1.40;;;16.60;49.20;;;;;;5122261;28;20339;-67
2022/03/30 05:11:59;;;;;;;1.85;1.67;;;16.60;49.20;;;;;;5122230;28;20063;-66
2022/03/30 05:14:24;;;;;;;2.45;1.63;;;16.60;49.10;;;;;;5122114;28;20023;-66
2022/03/30 05:16:50;;;;;;;1.67;1.27;;;16.60;49.10;;;;;;5122101;28;20073;-67
2022/03/30 05:19:16;;;;;;;1.73;1.42;;;16.50;49.10;;;;;;5122173;27;20094;-67
2022/03/30 05:21:41;;;;;;;1.50;1.40;;;16.50;49.10;;;;;;5122138;28;20015;-67
2022/03/30 05:24:07;;;;;;;2.13;1.52;;;16.60;49.10;;;;;;5122005;28;20028;-66
2022/03/30 05:26:33;;;;;;;2.10;1.45;;;16.50;49.00;;;;;;5121940;28;20031;-66
2022/03/30 05:28:58;;;;;;;1.25;1.02;;;16.60;49.10;;;;;;5121995;28;20027;-66
2022/03/30 05:31:24;;;;;;;1.63;1.48;;;16.60;49.10;;;;;;5121959;28;20030;-66
2022/03/30 05:33:50;;;;;;;2.10;1.23;;;16.50;49.10;;;;;;5121822;28;20220;-67
2022/03/30 05:36:18;;;;;;;1.20;1.10;;;16.60;49.10;;;;;;5121778;28;20032;-67
2022/03/30 05:38:44;;;;;;;2.47;1.80;;;16.60;49.20;;;;;;5120628;28;20063;-66
2022/03/30 05:41:10;;;;;;;1.40;1.30;;;16.50;49.10;;;;;;5121716;28;20024;-67
2022/03/30 05:43:36;;;;;;;2.38;1.75;;;16.50;49.10;;;;;;5121752;28;20035;-67
2022/03/30 05:46:01;;;;;;;1.63;1.52;;;16.50;49.10;;;;;;5121636;28;20027;-66
2022/03/30 05:48:27;;;;;;;1.65;1.20;;;16.50;49.00;;;;;;5121535;28;20080;-66
2022/03/30 05:50:55;;;;;;;1.88;1.30;;;16.50;49.10;;;;;;5121371;28;20149;-65
2022/03/30 05:53:21;;;;;;;1.80;1.40;;;16.60;49.10;;;;;;5120220;28;20069;-67
2022/03/30 05:55:46;;;;;;;1.75;1.60;;;16.50;49.00;;;;;;5121321;28;20024;-66
2022/03/30 05:58:15;;;;;;;1.98;1.40;;;16.50;49.10;;;;;;5121379;28;20027;-66
2022/03/30 06:00:41;;;;;;;;;;;16.50;49.10;;;;;;5121840;28;20023;-67
2022/03/30 06:03:08;;;;;;;1.70;1.23;;;16.50;49.00;;;;;;5121322;28;19900;-67
2022/03/30 06:05:34;;;;;;;1.75;1.58;;;16.50;49.10;;;;;;5121271;27;20391;-66
2022/03/30 06:08:02;;;;;;;1.95;1.48;;;16.60;49.30;;;;;;5121123;28;20034;-67
2022/03/30 06:10:28;;;;;;;1.80;1.40;;;16.60;49.10;;;;;;5121183;28;20335;-68
2022/03/30 06:12:55;;;;;;;2.78;1.20;;;16.50;49.00;;;;;;5121158;28;20034;-67
2022/03/30 06:15:21;;;;;;;1.63;1.40;;;16.50;49.00;;;;;;5121042;28;20093;-67
2022/03/30 06:17:48;;;;;;;1.63;1.35;;;16.60;49.10;;;;;;5121022;28;20015;-67
2022/03/30 06:20:14;;;;;;;1.85;1.40;;;16.50;49.00;;;;;;5120951;28;20019;-66
2022/03/30 06:22:41;;;;;;;2.95;1.73;;;16.60;49.00;;;;;;5120894;28;20026;-67
2022/03/30 06:25:09;;;;;;;2.40;1.70;;;16.50;49.00;;;;;;5120800;28;20245;-66
2022/03/30 06:27:35;;;;;;;2.03;1.58;;;16.50;49.10;;;;;;5120889;28;20027;-67
2022/03/30 06:30:02;;;;;;;1.55;1.35;;;16.50;49.00;;;;;;5120655;28;20028;-66
2022/03/30 06:32:28;;;;;;;2.55;1.70;;;16.60;49.10;;;;;;5120680;28;20023;-67
2022/03/30 06:34:54;;;;;;;1.52;1.42;;;16.60;49.10;;;;;;5120666;28;20485;-66
2022/03/30 06:37:20;;;;;;;1.48;1.25;;;16.60;49.10;;;;;;5120572;28;20253;-67
2022/03/30 06:39:45;;;;;;;1.50;1.40;;;16.60;49.10;;;;;;5120651;28;20430;-66
2022/03/30 06:42:11;;;;;;;1.58;1.48;;;16.60;49.00;;;;;;5120555;28;20063;-65
2022/03/30 06:44:38;;;;;;;2.13;1.67;;;16.60;49.00;;;;;;5120508;28;20062;-67
2022/03/30 06:47:04;;;;;;;1.63;1.35;;;16.50;48.90;;;;;;5120366;28;20019;-67
2022/03/30 06:49:30;;;;;;;1.80;1.52;;;16.60;49.00;;;;;;5120014;28;20027;-67
2022/03/30 06:51:56;;;;;;;2.65;1.63;;;16.60;49.00;;;;;;5120393;28;20394;-67
2022/03/30 06:54:21;;;;;;;1.50;1.40;;;16.60;49.00;;;;;;5118961;28;20023;-67
2022/03/30 06:56:47;;;;;;;2.40;1.52;;;16.60;49.00;;;;;;5120280;28;20024;-65
2022/03/30 06:59:13;;;;;;;1.90;1.77;;;16.50;49.00;;;;;;5120182;28;20035;-66
2022/03/30 07:01:39;;;;;;;2.08;1.52;;;16.60;49.00;;;;;;5120237;28;20020;-65
2022/03/30 07:04:05;;;;;;;1.58;1.45;;;16.60;48.90;;;;;;5120258;28;20355;-67
2022/03/30 07:06:31;;;;;;;1.55;1.33;;;16.60;49.00;;;;;;5119986;28;20030;-66
2022/03/30 07:11:41;;;;;;;1.77;1.50;;;16.60;49.00;;;;;;5120018;28;20030;-66
2022/03/30 07:14:07;;;;;;;2.63;1.50;;;16.60;49.00;;;;;;5120076;28;20047;-66
2022/03/30 07:16:32;;;;;;;1.20;1.10;;;16.60;48.90;;;;;;5119959;28;20072;-66
2022/03/30 07:18:58;;;;;;;2.20;1.73;;;16.60;49.00;;;;;;5119978;28;20031;-67
2022/03/30 07:21:24;;;;;;;2.33;1.45;;;16.60;49.00;;;;;;5119961;28;20022;-68
2022/03/30 07:23:50;;;;;;;2.70;1.33;;;16.60;49.00;;;;;;5119886;28;20060;-66
2022/03/30 07:26:15;;;;;;;2.33;1.67;;;16.60;49.00;;;;;;5119814;28;20032;-67
2022/03/30 07:28:41;;;;;;;2.08;1.60;;;16.60;49.10;;;;;;5119833;28;20065;-67
2022/03/30 07:31:07;;;;;;;1.40;1.25;;;16.60;49.00;;;;;;5119846;28;20031;-66
2022/03/30 07:33:33;;;;;;;2.08;1.45;;;16.60;49.00;;;;;;5118563;28;20027;-67
2022/03/30 07:36:00;;;;;;;1.75;1.60;;;16.60;49.00;;;;;;5118382;28;20023;-67
2022/03/30 07:38:26;;;;;;;1.70;1.35;;;16.60;49.00;;;;;;5119833;28;20082;-67
2022/03/30 07:40:53;;;;;;;1.50;1.40;;;16.60;48.90;;;;;;5118480;28;20031;-68
2022/03/30 07:43:19;;;;;;;1.58;1.40;;;16.60;48.90;;;;;;5119762;28;20030;-66
2022/03/30 07:45:44;;;;;;;2.42;1.75;;;16.60;48.90;;;;;;5119731;28;20039;-68
2022/03/30 07:48:12;;;;;;;1.42;1.20;;;16.60;48.90;;;;;;5119600;28;20315;-66
2022/03/30 07:50:38;;;;;;;1.63;1.20;;;16.60;48.90;;;;;;5119443;28;20059;-66
2022/03/30 07:53:07;;;;;;;1.85;1.25;;;16.60;48.90;;;;;;5119562;28;20015;-67
2022/03/30 07:55:34;;;;;;;1.65;1.52;;;16.60;49.00;;;;;;5119411;28;20285;-67
2022/03/30 07:58:01;;;;;;;1.60;1.50;;;16.60;49.00;;;;;;5118100;28;20212;-68
2022/03/30 08:00:27;;;;;;;2.38;1.75;;;16.60;49.10;;;;;;5118263;28;20023;-68
2022/03/30 08:02:53;;;;;;;2.25;1.30;;;16.60;49.10;;;;;;5122065;28;20047;-67
2022/03/30 08:05:21;;;;;;;1.80;1.35;;;16.60;49.00;;;;;;5123481;28;20155;-67
2022/03/30 08:07:49;;;;;;;1.90;1.45;;;16.60;49.10;;;;;;5123399;28;20030;-67
2022/03/30 08:10:15;;;;;;;1.73;1.33;;;16.60;49.10;;;;;;5123387;28;20125;-68
2022/03/30 08:12:41;;;;;;;1.73;1.55;;;16.60;49.10;;;;;;5123207;28;20038;-66
2022/03/30 08:15:12;;;;;;;1.67;1.52;;;16.60;49.10;;;;;;5123231;28;20035;-67
2022/03/30 08:17:38;;;;;;;1.65;1.45;;;16.60;49.10;;;;;;5123234;28;20373;-69
2022/03/30 08:20:05;;;;;;;1.55;1.45;;;16.60;49.10;;;;;;5121855;28;20312;-68
2022/03/30 08:22:30;;;;;;;1.48;1.38;;;16.60;49.00;;;;;;5123233;28;20023;-67
2022/03/30 08:25:07;;;;;;;2.53;1.52;;;16.60;49.10;;;;;;5123186;28;20050;-67
2022/03/30 08:27:34;;;;;;;1.63;1.52;;;16.60;49.10;;;;;;5123058;28;20316;-66
2022/03/30 08:30:00;;;;;;;1.60;1.50;;;16.60;49.10;;;;;;5123001;28;20023;-67
2022/03/30 08:32:27;;;;;;;1.40;1.30;;;16.70;49.10;;;;;;5122980;28;20049;-66
2022/03/30 08:34:54;;;;;;;2.08;1.48;;;16.60;49.10;;;;;;5122803;28;20031;-65
2022/03/30 08:37:20;;;;;;;1.70;1.33;;;16.60;49.10;;;;;;5122918;28;20185;-66
2022/03/30 08:39:48;;;;;;;1.40;1.30;;;16.60;49.10;;;;;;5122868;28;20509;-67
2022/03/30 08:42:15;;;;;;;2.58;1.75;;;16.60;49.10;;;;;;5122800;28;20027;-67
2022/03/30 08:44:41;;;;;;;1.70;1.50;;;16.60;49.10;;;;;;5122905;28;20031;-66
2022/03/30 08:47:09;;;;;;;2.10;1.40;;;16.70;49.20;;;;;;5122723;28;20027;-66
2022/03/30 08:49:37;;;;;;;1.90;1.63;;;16.60;49.10;;;;;;5122685;27;20022;-67
2022/03/30 08:52:05;;;;;;;1.35;1.25;;;16.70;49.10;;;;;;5122574;28;20385;-67
2022/03/30 08:54:30;;;;;;;2.50;1.50;;;16.70;49.10;;;;;;5122616;28;20031;-66
2022/03/30 08:56:56;;;;;;;2.05;1.52;;;16.70;49.10;;;;;;5122526;28;20034;-67
2022/03/30 08:59:23;;;;;;;2.00;1.42;;;16.70;49.20;;;;;;5122457;28;20269;-66
2022/03/30 09:01:52;;;;;;;1.48;1.38;;;16.70;49.20;;;;;;5122482;28;20045;-67
2022/03/30 09:04:19;;;;;;;;;;;16.70;49.10;;;;;;5122891;28;20027;-66
2022/03/30 09:06:49;;;;;;;1.65;1.33;;;16.70;49.20;;;;;;5122295;28;19899;-66
2022/03/30 09:09:25;;;;;;;2.40;1.67;;;16.70;49.20;;;;;;5122175;28;20028;-67
2022/03/30 09:11:55;;;;;;;1.25;1.10;;;16.70;49.20;;;;;;5122234;28;20058;-67
2022/03/30 09:14:24;;;;;;;1.58;1.40;;;16.70;49.20;;;;;;5121879;28;20043;-67
2022/03/30 09:16:57;;;;;;;1.60;1.40;;;16.70;49.20;;;;;;5122077;28;20132;-68
2022/03/30 09:19:23;;;;;;;1.67;1.48;;;16.70;49.30;;;;;;5122141;28;20031;-67
2022/03/30 09:21:56;;;;;;;1.30;1.17;;;16.70;49.20;;;;;;5122044;28;20019;-67
2022/03/30 09:24:28;;;;;;;2.17;1.42;;;16.70;49.20;;;;;;5122114;27;20524;-67
2022/03/30 09:26:55;;;;;;;1.50;1.30;;;16.70;49.20;;;;;;5121919;28;20063;-67
2022/03/30 09:29:23;;;;;;;1.60;1.50;;;16.70;49.20;;;;;;5121931;28;20376;-67
2022/03/30 09:31:49;;;;;;;1.63;1.50;;;16.70;49.20;;;;;;5121883;28;20071;-68
2022/03/30 09:34:16;;;;;;;2.00;1.50;;;16.70;49.20;;;;;;5121899;28;20037;-68
2022/03/30 09:36:43;;;;;;;1.60;1.50;;;16.70;49.30;;;;;;5121683;28;20347;-68
2022/03/30 09:39:30;;;;;;;1.48;1.38;;;16.70;49.30;;;;;;5121768;27;20019;-67
2022/03/30 09:41:59;;;;;;;1.75;1.38;;;16.70;49.30;;;;;;5121764;28;20019;-66
2022/03/30 09:44:26;;;;;;;;;;;16.70;49.30;;;;;;5122150;28;20312;-66
2022/03/30 09:47:05;;;;;;;1.60;1.20;;;16.70;49.30;;;;;;5120282;28;19903;-67
2022/03/30 09:49:45;;;;;;;1.20;1.00;;;16.70;49.30;;;;;;5120200;28;20026;-67
2022/03/30 09:52:13;;;;;;;1.52;1.23;;;16.70;49.20;;;;;;5121520;28;20504;-66
2022/03/30 09:54:49;;;;;;;1.73;1.48;;;16.70;49.20;;;;;;5121381;28;20023;-66
2022/03/30 09:57:21;;;;;;;1.52;1.42;;;16.70;49.20;;;;;;5121485;28;20020;-68
2022/03/30 10:00:02;;;;;;;1.30;1.20;;;16.70;49.20;;;;;;5120278;28;20069;-67
2022/03/30 10:02:31;;;;;;;1.60;1.33;;;16.70;49.30;;;;;;5121329;28;20053;-66
2022/03/30 10:04:59;;;;;;;2.20;1.70;;;16.70;49.30;;;;;;5121254;28;20023;-67
2022/03/30 10:07:27;;;;;;;1.55;1.42;;;16.70;49.20;;;;;;5121303;28;20016;-66
2022/03/30 10:09:53;;;;;;;1.15;1.05;;;16.70;49.30;;;;;;5121218;28;20119;-67
2022/03/30 10:12:19;;;;;;;1.30;1.20;;;16.80;49.30;;;;;;5121189;28;20019;-67
2022/03/30 10:14:54;;;;;;;1.92;1.52;;;16.70;49.30;;;;;;5120937;28;20027;-67
2022/03/30 10:17:22;;;;;;;1.40;1.25;;;16.70;49.30;;;;;;5121010;28;20020;-67
2022/03/30 10:19:49;;;;;;;1.17;1.08;;;16.80;49.30;;;;;;5120909;28;20020;-66
2022/03/30 10:22:36;;;;;;;1.60;1.50;;;16.80;49.30;;;;;;5121033;28;20026;-67
2022/03/30 10:25:17;;;;;;;2.08;1.50;;;16.80;49.40;;;;;;5118953;28;20031;-66
2022/03/30 10:28:23;;;;;;;1.80;1.38;;;16.80;49.40;;;;;;5120842;28;20031;-66
2022/03/30 10:30:57;;;;;;;1.13;1.02;;;16.80;49.30;;;;;;5120731;28;20016;-66
2022/03/30 10:33:42;;;;;;;1.30;1.20;;;16.80;49.30;;;;;;5120752;28;20050;-67
2022/03/30 10:36:23;;;;;;;1.80;1.25;;;16.80;49.30;;;;;;5120513;28;20038;-66
2022/03/30 10:39:16;;;;;;;1.63;1.50;;;16.80;49.30;;;;;;5120568;28;20031;-67
2022/03/30 10:41:54;;;;;;;2.10;1.50;;;16.80;49.30;;;;;;5120670;28;20360;-67
2022/03/30 10:44:42;;;;;;;1.88;1.48;;;16.80;49.30;;;;;;5120460;28;20296;-67
2022/03/30 10:47:13;;;;;;;1.52;1.42;;;16.80;49.30;;;;;;5120500;28;20029;-68
2022/03/30 10:49:51;;;;;;;1.42;1.25;;;16.80;49.30;;;;;;5120459;28;20090;-67
2022/03/30 10:52:40;;;;;;;1.70;1.48;;;16.80;49.40;;;;;;5120462;28;20371;-66
2022/03/30 10:55:12;;;;;;;1.23;1.08;;;16.80;49.40;;;;;;5119072;28;20030;-67
2022/03/30 10:57:52;;;;;;;1.42;1.27;;;16.80;49.30;;;;;;5119064;28;20026;-67
2022/03/30 11:00:22;;;;;;;1.55;1.45;;;16.80;49.30;;;;;;5118991;28;20038;-66
2022/03/30 11:02:48;;;;;;;1.40;1.25;;;16.80;49.40;;;;;;5120273;28;20027;-68
2022/03/30 11:05:16;;;;;;;1.55;1.45;;;16.80;49.30;;;;;;5120248;28;20028;-66
2022/03/30 11:07:42;;;;;;;1.33;1.25;;;16.80;49.40;;;;;;5120219;28;20031;-68
2022/03/30 11:10:17;;;;;;;1.40;1.30;;;16.80;49.30;;;;;;5120090;28;20059;-67
2022/03/30 11:13:04;;;;;;;1.42;1.20;;;16.80;49.30;;;;;;5118858;28;20027;-67
2022/03/30 11:15:49;;;;;;;1.55;1.35;;;16.80;49.30;;;;;;5120092;28;20027;-67
2022/03/30 11:18:19;;;;;;;1.45;1.35;;;16.80;49.40;;;;;;5120137;28;20034;-67
2022/03/30 11:21:13;;;;;;;1.30;1.20;;;16.80;49.90;;;;;;5120029;28;20008;-66
2022/03/30 11:23:40;;;;;;;1.90;1.73;;;16.80;49.40;;;;;;5120007;28;20012;-66
2022/03/30 11:26:05;;;;;;;1.63;1.50;;;16.80;49.20;;;;;;5118907;28;20059;-66
2022/03/30 11:28:40;;;;;;;1.58;1.45;;;16.80;49.30;;;;;;5118547;28;20035;-66
2022/03/30 11:31:23;;;;;;;2.03;1.70;;;16.80;49.40;;;;;;5120020;28;20028;-67
2022/03/30 11:34:26;;;;;;;1.35;1.25;;;16.80;49.40;;;;;;5119932;28;20325;-66
2022/03/30 11:36:53;;;;;;;1.77;1.30;;;16.80;49.30;;;;;;5119359;28;20051;-67
2022/03/30 11:39:32;;;;;;;2.03;1.35;;;16.80;49.40;;;;;;5124108;28;20408;-68
2022/03/30 11:42:00;;;;;;;2.03;1.30;;;16.80;49.40;;;;;;5124186;28;20034;-68
2022/03/30 11:47:19;;;;;;;1.60;1.50;;;16.80;49.40;;;;;;5123992;28;20270;-66
2022/03/30 11:49:57;;;;;;;1.50;1.30;;;16.80;49.30;;;;;;5122633;28;20046;-67
2022/03/30 11:52:23;;;;;;;1.42;1.10;;;16.90;49.40;;;;;;5123978;28;20449;-66
2022/03/30 11:54:51;;;;;;;1.50;1.40;;;16.80;49.40;;;;;;5123654;28;20023;-68
2022/03/30 11:57:17;;;;;;;1.80;1.48;;;16.80;49.40;;;;;;5123846;27;20031;-67
2022/03/30 12:00:03;;;;;;;1.80;1.48;;;16.80;49.30;;;;;;5123754;28;20060;-68
2022/03/30 12:02:30;;;;;;;2.78;1.20;;;16.90;49.40;;;;;;5123713;28;20138;-66
2022/03/30 12:04:57;;;;;;;1.30;1.20;;;16.90;49.40;;;;;;5123589;28;20019;-68
2022/03/30 12:07:23;;;;;;;1.95;1.25;;;16.90;49.40;;;;;;5123563;28;20058;-67
2022/03/30 12:09:53;;;;;;;1.98;1.38;;;16.90;49.40;;;;;;5122250;28;20043;-67
2022/03/30 12:12:36;;;;;;;1.50;1.30;;;16.80;49.40;;;;;;5123445;28;20028;-67
2022/03/30 12:15:09;;;;;;;1.67;1.27;;;16.80;49.40;;;;;;5123485;28;20034;-67
2022/03/30 12:17:36;;;;;;;1.45;1.35;;;16.80;49.50;;;;;;5123475;28;20079;-67
2022/03/30 12:20:07;;;;;;;1.48;1.27;;;16.80;49.40;;;;;;5123387;28;20078;-67
2022/03/30 12:22:35;;;;;;;1.92;1.30;;;16.80;49.40;;;;;;5123278;28;20335;-66
2022/03/30 12:25:03;;;;;;;1.97;1.80;;;16.80;49.50;;;;;;5121894;28;20323;-67
2022/03/30 12:27:40;;;;;;;1.88;1.52;;;16.80;49.50;;;;;;5123114;28;20028;-67
2022/03/30 12:30:06;;;;;;;1.25;1.15;;;16.80;49.50;;;;;;5123253;28;20030;-68
2022/03/30 12:32:32;;;;;;;2.20;1.50;;;16.80;49.50;;;;;;5123211;28;20201;-67
2022/03/30 12:35:08;;;;;;;1.40;1.30;;;16.80;49.50;;;;;;5122983;28;20133;-67
2022/03/30 12:37:34;;;;;;;1.30;1.20;;;16.80;49.50;;;;;;5123045;28;20536;-66
2022/03/30 12:40:15;;;;;;;1.85;1.58;;;16.80;49.60;;;;;;5122882;28;20032;-65
2022/03/30 12:42:43;;;;;;;2.20;1.33;;;16.80;49.50;;;;;;5122938;28;20019;-67
2022/03/30 12:45:11;;;;;;;2.10;1.60;;;16.80;49.50;;;;;;5122880;28;20295;-66
2022/03/30 12:48:01;;;;;;;1.77;1.30;;;16.80;49.60;;;;;;5122311;28;20034;-67
2022/03/30 12:50:33;;;;;;;1.63;1.48;;;16.80;49.60;;;;;;5122666;28;20043;-67
2022/03/30 12:53:15;;;;;;;1.73;1.52;;;16.80;49.60;;;;;;5122722;28;20023;-68
2022/03/30 12:55:46;;;;;;;1.98;1.55;;;16.80;49.50;;;;;;5122621;27;20027;-68
2022/03/30 12:58:16;;;;;;;2.08;1.50;;;16.80;49.60;;;;;;5122632;28;20024;-66
2022/03/30 13:00:48;;;;;;;1.20;1.10;;;16.80;49.60;;;;;;5122464;28;20270;-68
2022/03/30 13:03:25;;;;;;;1.30;1.20;;;16.80;49.60;;;;;;5122583;28;20012;-66